Time;durP1;ratioP1;P1;durP2;ratioP2;P2;SDS_P1;SDS_P2;PMS_P1;PMS_P2;Temp;Humidity;BMP_temperature;BMP_pressure;BME280_temperature;BME280_humidity;BME280_pressure;Samples;Min_cycle;Max_cycle;Signal;HPM_P1;HPM_P2
2022/05/02 00:00:15;;;;;;;17.73;7.57;;;6.10;99.90;;;;;;5054396;28;20105;-73
2022/05/02 00:02:41;;;;;;;17.75;7.00;;;6.10;99.90;;;;;;5053784;28;20117;-74
2022/05/02 00:05:07;;;;;;;18.20;7.35;;;6.10;99.90;;;;;;5021218;28;20084;-73
2022/05/02 00:07:34;;;;;;;16.00;6.93;;;6.00;99.90;;;;;;5067217;28;20131;-71
2022/05/02 00:10:00;;;;;;;15.40;7.40;;;6.00;99.90;;;;;;5072436;28;20049;-73
2022/05/02 00:12:26;;;;;;;16.17;7.95;;;5.90;99.90;;;;;;5064062;28;20037;-74
2022/05/02 00:14:52;;;;;;;15.52;7.20;;;5.90;99.90;;;;;;5067494;28;20135;-72
2022/05/02 00:17:18;;;;;;;18.40;7.15;;;5.80;99.90;;;;;;5070569;28;20045;-73
2022/05/02 00:19:44;;;;;;;18.85;8.10;;;5.80;99.90;;;;;;5064829;28;20047;-71
2022/05/02 00:22:09;;;;;;;16.40;6.78;;;5.80;99.90;;;;;;5055266;28;20053;-73
2022/05/02 00:24:37;;;;;;;15.88;7.20;;;5.80;99.90;;;;;;5037621;28;20139;-72
2022/05/02 00:27:04;;;;;;;;;;;5.80;99.90;;;;;;5068923;28;20087;-73
2022/05/02 00:29:29;;;;;;;15.32;6.60;;;5.80;99.90;;;;;;5051967;28;19960;-73
2022/05/02 00:31:55;;;;;;;14.65;6.80;;;5.70;99.90;;;;;;5050931;28;20080;-73
2022/05/02 00:34:21;;;;;;;17.77;7.70;;;5.80;99.90;;;;;;5050969;28;20132;-74
2022/05/02 00:36:46;;;;;;;16.35;7.53;;;5.70;99.90;;;;;;5052156;28;20143;-72
2022/05/02 00:39:12;;;;;;;17.67;8.18;;;5.70;99.90;;;;;;5051415;28;20060;-72
2022/05/02 00:41:38;;;;;;;17.45;7.68;;;5.70;99.90;;;;;;5033858;28;20041;-74
2022/05/02 00:44:04;;;;;;;20.45;8.05;;;5.70;99.90;;;;;;5050540;28;20045;-73
2022/05/02 00:46:30;;;;;;;21.70;8.25;;;5.60;99.90;;;;;;5050530;28;20052;-77
2022/05/02 00:48:56;;;;;;;20.48;8.35;;;5.60;99.90;;;;;;5051300;28;20450;-74
2022/05/02 00:51:22;;;;;;;18.05;7.68;;;5.60;99.90;;;;;;5037733;28;20079;-73
2022/05/02 00:53:49;;;;;;;19.83;8.30;;;5.60;99.90;;;;;;5037092;28;20485;-72
2022/05/02 00:56:20;;;;;;;19.70;8.32;;;5.50;99.90;;;;;;5021045;28;20049;-73
2022/05/02 00:58:52;;;;;;;18.90;7.78;;;5.40;99.90;;;;;;5053975;28;20045;-73
2022/05/02 01:01:18;;;;;;;18.05;7.90;;;5.40;99.90;;;;;;5054786;28;20036;-73
2022/05/02 01:03:44;;;;;;;17.33;7.68;;;5.40;99.90;;;;;;5037344;28;20139;-73
2022/05/02 01:08:54;;;;;;;16.30;7.70;;;5.30;99.90;;;;;;5040333;28;20067;-72
2022/05/02 01:11:20;;;;;;;16.20;7.47;;;5.30;99.90;;;;;;5053685;28;20462;-72
2022/05/02 01:13:48;;;;;;;19.58;8.23;;;5.40;99.90;;;;;;5053850;28;20037;-72
2022/05/02 01:16:14;;;;;;;19.38;8.43;;;5.30;99.90;;;;;;5053296;28;20107;-72
2022/05/02 01:18:40;;;;;;;20.98;8.77;;;5.30;99.90;;;;;;5054587;28;20084;-73
2022/05/02 01:21:26;;;;;;;18.73;8.15;;;5.40;99.90;;;;;;5054752;28;20048;-73
2022/05/02 01:23:59;;;;;;;18.83;8.17;;;5.30;99.90;;;;;;5053044;28;20592;-73
2022/05/02 01:26:25;;;;;;;16.80;7.90;;;5.30;99.90;;;;;;5055415;28;20276;-72
2022/05/02 01:28:56;;;;;;;18.63;8.48;;;5.30;99.90;;;;;;5053700;28;20094;-73
2022/05/02 01:31:22;;;;;;;17.50;8.55;;;5.30;99.90;;;;;;5053982;28;20430;-72
2022/05/02 01:33:49;;;;;;;17.60;8.07;;;5.30;99.90;;;;;;5054386;28;20041;-73
2022/05/02 01:36:16;;;;;;;18.92;8.60;;;5.30;99.90;;;;;;5055027;28;20127;-72
2022/05/02 01:38:42;;;;;;;20.08;9.20;;;5.20;99.90;;;;;;5053525;28;20397;-72
2022/05/02 01:41:09;;;;;;;21.83;8.48;;;5.30;99.90;;;;;;5054934;28;20204;-73
2022/05/02 01:43:36;;;;;;;20.15;8.57;;;5.30;99.90;;;;;;5053697;28;20137;-72
2022/05/02 01:46:03;;;;;;;;;;;5.20;99.90;;;;;;5054630;28;20037;-72
2022/05/02 01:48:29;;;;;;;21.58;8.18;;;5.10;99.90;;;;;;5036512;28;20423;-72
2022/05/02 01:50:55;;;;;;;19.75;9.25;;;5.10;99.90;;;;;;5052492;28;20049;-73
2022/05/02 01:53:21;;;;;;;19.75;8.57;;;5.10;99.90;;;;;;5035928;28;20045;-73
2022/05/02 01:55:47;;;;;;;22.85;8.70;;;5.00;99.90;;;;;;5053368;28;20381;-73
2022/05/02 01:58:13;;;;;;;25.75;10.82;;;5.00;99.90;;;;;;5054272;28;20041;-72
2022/05/02 02:00:39;;;;;;;22.55;9.25;;;4.90;99.90;;;;;;5053270;28;20068;-73
2022/05/02 02:03:05;;;;;;;23.33;9.50;;;4.90;99.90;;;;;;5052623;28;20041;-73
2022/05/02 02:05:49;;;;;;;19.95;8.68;;;4.90;99.90;;;;;;5053317;28;20084;-72
2022/05/02 02:08:44;;;;;;;20.08;8.77;;;4.90;99.90;;;;;;5053750;28;20459;-73
2022/05/02 02:11:10;;;;;;;19.88;9.48;;;4.90;99.90;;;;;;5039512;28;20215;-72
2022/05/02 02:13:37;;;;;;;21.83;8.68;;;4.90;99.90;;;;;;5053147;28;20045;-73
2022/05/02 02:16:07;;;;;;;21.25;9.52;;;4.80;99.90;;;;;;5052128;28;20065;-73
2022/05/02 02:18:34;;;;;;;21.58;9.85;;;4.80;99.90;;;;;;5054035;28;20068;-73
2022/05/02 02:20:59;;;;;;;20.45;9.98;;;4.80;99.90;;;;;;5053447;28;20045;-72
2022/05/02 02:23:26;;;;;;;21.70;9.73;;;4.80;99.90;;;;;;5052343;28;20048;-72
2022/05/02 02:25:52;;;;;;;20.30;9.20;;;4.80;99.90;;;;;;5052555;28;20465;-73
2022/05/02 02:28:19;;;;;;;21.88;9.52;;;4.80;99.90;;;;;;5052884;28;20045;-72
2022/05/02 02:30:45;;;;;;;20.98;9.52;;;4.80;99.90;;;;;;5053682;28;20068;-72
2022/05/02 02:33:12;;;;;;;20.77;9.30;;;4.80;99.90;;;;;;5035583;28;20592;-73
2022/05/02 02:35:38;;;;;;;19.73;9.73;;;4.80;99.90;;;;;;5052410;28;20534;-73
2022/05/02 02:38:04;;;;;;;26.83;10.57;;;4.80;99.90;;;;;;5035458;28;20048;-74
2022/05/02 02:40:31;;;;;;;25.25;10.23;;;4.70;99.90;;;;;;5052093;28;20446;-73
2022/05/02 02:42:57;;;;;;;24.35;10.02;;;4.70;99.90;;;;;;5052133;28;20048;-72
2022/05/02 02:45:22;;;;;;;19.90;10.23;;;4.70;99.90;;;;;;5035121;28;20041;-72
2022/05/02 02:47:48;;;;;;;22.50;9.88;;;4.60;99.90;;;;;;5052767;28;20053;-73
2022/05/02 02:50:14;;;;;;;24.30;10.00;;;4.60;99.90;;;;;;5053383;28;20037;-72
2022/05/02 02:52:40;;;;;;;21.20;10.23;;;4.60;99.90;;;;;;5052976;28;20074;-79
2022/05/02 02:55:07;;;;;;;27.80;10.35;;;4.60;99.90;;;;;;5052039;28;20049;-72
2022/05/02 02:57:33;;;;;;;24.67;9.85;;;4.60;99.90;;;;;;5053228;28;20061;-73
2022/05/02 02:59:59;;;;;;;23.30;10.52;;;4.50;99.90;;;;;;5035676;28;20053;-73
2022/05/02 03:02:25;;;;;;;24.98;10.75;;;4.50;99.90;;;;;;5037754;28;20397;-74
2022/05/02 03:07:36;;;;;;;22.80;10.30;;;4.50;99.90;;;;;;5052601;28;20056;-73
2022/05/02 03:10:03;;;;;;;26.50;10.75;;;4.50;99.90;;;;;;5035461;28;20044;-73
2022/05/02 03:12:29;;;;;;;22.47;10.40;;;4.40;99.90;;;;;;5035508;28;20346;-73
2022/05/02 03:14:54;;;;;;;24.73;11.13;;;4.30;99.90;;;;;;5052567;28;20049;-72
2022/05/02 03:17:20;;;;;;;28.10;11.13;;;4.30;99.90;;;;;;5055780;28;20056;-72
2022/05/02 03:19:46;;;;;;;28.98;12.43;;;4.30;99.90;;;;;;5035034;28;20194;-71
2022/05/02 03:22:12;;;;;;;31.92;11.82;;;4.30;99.90;;;;;;5051525;28;20377;-71
2022/05/02 03:24:38;;;;;;;27.58;12.20;;;4.30;99.90;;;;;;5051706;28;20072;-71
2022/05/02 03:27:04;;;;;;;31.20;12.10;;;4.30;99.90;;;;;;5051612;28;20049;-72
2022/05/02 03:29:30;;;;;;;27.33;11.50;;;4.20;99.90;;;;;;5051372;28;20365;-72
2022/05/02 03:31:56;;;;;;;29.55;12.50;;;4.30;99.90;;;;;;5052625;28;20049;-73
2022/05/02 03:34:21;;;;;;;26.38;10.90;;;4.20;99.90;;;;;;5018425;28;20045;-71
2022/05/02 03:36:47;;;;;;;30.83;12.88;;;4.20;99.90;;;;;;5051282;28;20135;-72
2022/05/02 03:39:13;;;;;;;25.27;11.52;;;4.20;99.90;;;;;;5035397;28;20079;-71
2022/05/02 03:41:38;;;;;;;28.58;11.15;;;4.20;99.90;;;;;;5051476;28;20128;-71
2022/05/02 03:44:04;;;;;;;25.23;11.30;;;4.20;99.90;;;;;;5051216;28;20124;-71
2022/05/02 03:46:30;;;;;;;28.50;12.18;;;4.10;99.90;;;;;;5051249;28;20125;-71
2022/05/02 03:48:57;;;;;;;25.17;11.00;;;4.10;99.90;;;;;;5052618;28;20131;-72
2022/05/02 03:51:23;;;;;;;27.38;11.38;;;4.10;99.90;;;;;;5034694;28;20056;-73
2022/05/02 03:53:49;;;;;;;25.45;11.45;;;4.10;99.90;;;;;;5034378;28;20393;-72
2022/05/02 03:56:14;;;;;;;31.42;13.32;;;4.10;99.90;;;;;;5052096;28;20064;-72
2022/05/02 03:58:40;;;;;;;29.80;12.90;;;4.20;99.90;;;;;;5051099;28;20081;-72
2022/05/02 04:01:06;;;;;;;28.70;11.43;;;4.10;99.90;;;;;;5052158;28;20052;-72
2022/05/02 04:03:32;;;;;;;29.65;12.13;;;4.10;99.90;;;;;;5068508;28;20131;-73
2022/05/02 04:05:58;;;;;;;30.02;12.85;;;4.10;99.90;;;;;;5050756;28;20389;-73
2022/05/02 04:08:23;;;;;;;28.77;12.30;;;4.10;99.90;;;;;;5052054;28;20048;-71
2022/05/02 04:10:49;;;;;;;27.75;12.27;;;4.00;99.90;;;;;;5051996;28;20434;-76
2022/05/02 04:13:15;;;;;;;27.48;12.60;;;4.10;99.90;;;;;;5067405;28;20041;-72
2022/05/02 04:15:41;;;;;;;26.88;12.18;;;4.10;99.90;;;;;;5052200;28;20393;-72
2022/05/02 04:18:06;;;;;;;30.23;12.25;;;4.10;99.90;;;;;;5050986;28;20402;-72
2022/05/02 04:20:33;;;;;;;31.02;12.40;;;4.20;99.90;;;;;;5034401;28;20057;-72
2022/05/02 04:22:59;;;;;;;32.27;13.63;;;4.20;99.90;;;;;;5051358;28;20091;-73
2022/05/02 04:25:24;;;;;;;28.77;12.15;;;4.10;99.90;;;;;;5038382;28;20683;-72
2022/05/02 04:27:50;;;;;;;30.60;12.60;;;4.20;99.90;;;;;;5038588;28;20437;-72
2022/05/02 04:30:16;;;;;;;36.25;12.82;;;4.20;99.90;;;;;;5037901;28;20056;-74
2022/05/02 04:32:42;;;;;;;27.65;11.82;;;4.20;99.90;;;;;;5054474;28;20045;-73
2022/05/02 04:35:10;;;;;;;33.58;13.93;;;4.30;99.90;;;;;;5054527;28;20055;-72
2022/05/02 04:37:36;;;;;;;31.65;13.13;;;4.30;99.90;;;;;;5054890;28;20045;-73
2022/05/02 04:40:04;;;;;;;26.77;12.88;;;4.50;99.90;;;;;;5038486;28;20085;-72
2022/05/02 04:42:29;;;;;;;32.28;13.20;;;4.50;99.90;;;;;;5054475;28;20060;-73
2022/05/02 04:44:55;;;;;;;28.65;13.27;;;4.60;99.90;;;;;;5054574;28;20045;-72
2022/05/02 04:47:21;;;;;;;30.45;12.30;;;4.60;99.90;;;;;;5054423;28;20371;-73
2022/05/02 04:49:46;;;;;;;29.02;13.18;;;4.70;99.90;;;;;;5054222;28;20057;-73
2022/05/02 04:52:12;;;;;;;26.42;11.48;;;4.80;99.90;;;;;;5070532;28;20049;-74
2022/05/02 04:54:38;;;;;;;23.77;11.18;;;5.00;99.90;;;;;;5037697;28;20052;-74
2022/05/02 04:57:04;;;;;;;25.85;12.18;;;5.10;99.90;;;;;;5054807;28;20092;-73
2022/05/02 04:59:30;;;;;;;24.83;11.63;;;5.20;99.90;;;;;;5055929;28;20102;-73
2022/05/02 05:01:57;;;;;;;23.75;12.10;;;5.40;99.90;;;;;;5053916;28;20422;-74
2022/05/02 05:04:24;;;;;;;24.52;11.70;;;5.50;99.90;;;;;;5054220;28;20114;-74
2022/05/02 05:06:50;;;;;;;28.92;11.93;;;5.60;99.90;;;;;;5053621;28;20059;-73
2022/05/02 05:09:16;;;;;;;26.08;11.35;;;5.80;99.90;;;;;;5053969;28;20041;-73
2022/05/02 05:12:15;;;;;;;29.10;12.52;;;5.90;99.90;;;;;;5055397;28;20111;-72
2022/05/02 05:17:56;;;;;;;24.92;11.02;;;5.90;99.90;;;;;;5054936;28;20053;-72
2022/05/02 05:20:41;;;;;;;27.88;12.45;;;6.00;99.90;;;;;;5054535;28;20131;-73
2022/05/02 05:23:25;;;;;;;22.92;10.70;;;5.80;99.90;;;;;;5055064;28;20045;-72
2022/05/02 05:26:12;;;;;;;23.17;10.70;;;6.00;99.90;;;;;;5054927;28;20045;-73
2022/05/02 05:28:51;;;;;;;23.42;10.90;;;6.20;99.90;;;;;;5053201;28;20516;-73
2022/05/02 05:31:31;;;;;;;21.52;10.82;;;6.30;99.90;;;;;;5054688;28;20049;-73
2022/05/02 05:34:06;;;;;;;22.27;11.05;;;6.40;99.90;;;;;;5054787;28;20053;-74
2022/05/02 05:36:50;;;;;;;21.90;11.25;;;6.50;99.90;;;;;;5036631;28;20572;-77
2022/05/02 05:39:31;;;;;;;25.73;11.25;;;6.60;99.90;;;;;;5054419;28;20136;-74
2022/05/02 05:42:14;;;;;;;25.85;10.88;;;6.80;99.90;;;;;;5054451;28;20091;-74
2022/05/02 05:45:05;;;;;;;20.92;10.68;;;6.90;99.90;;;;;;5054468;28;20041;-74
2022/05/02 05:48:00;;;;;;;22.95;11.38;;;6.90;99.90;;;;;;5037048;28;20049;-72
2022/05/02 05:50:31;;;;;;;30.97;11.77;;;7.10;99.90;;;;;;5054371;28;20084;-72
2022/05/02 05:53:49;;;;;;;21.15;11.25;;;7.20;99.90;;;;;;5054096;28;20287;-72
2022/05/02 05:56:28;;;;;;;25.38;10.85;;;7.30;99.90;;;;;;5030382;28;20579;-72
2022/05/02 05:59:41;;;;;;;26.10;11.77;;;7.30;99.90;;;;;;5056370;28;20072;-72
2022/05/02 06:02:35;;;;;;;20.73;10.45;;;7.40;99.90;;;;;;5051842;28;20056;-72
2022/05/02 06:05:08;;;;;;;28.88;12.15;;;7.50;99.90;;;;;;5057940;28;20045;-73
2022/05/02 06:07:35;;;;;;;25.88;11.57;;;7.70;99.90;;;;;;5054301;28;20068;-74
2022/05/02 06:10:02;;;;;;;23.10;11.07;;;7.80;99.90;;;;;;5054228;28;20127;-72
2022/05/02 06:12:31;;;;;;;24.95;11.98;;;7.80;99.90;;;;;;5054551;28;20334;-72
2022/05/02 06:20:34;;;;;;;24.35;11.93;;;8.10;99.90;;;;;;5053603;28;20052;-73
2022/05/02 06:23:02;;;;;;;24.20;11.65;;;8.20;99.90;;;;;;5054992;28;20128;-73
2022/05/02 06:25:29;;;;;;;24.80;12.13;;;8.30;99.90;;;;;;5054704;28;20092;-74
2022/05/02 06:27:57;;;;;;;22.13;11.45;;;8.40;99.90;;;;;;5055160;28;20084;-72
2022/05/02 06:30:23;;;;;;;27.73;11.90;;;8.50;99.90;;;;;;5052364;28;20057;-72
2022/05/02 06:32:51;;;;;;;22.83;11.98;;;8.70;99.90;;;;;;5053517;28;20080;-72
2022/05/02 06:35:20;;;;;;;24.73;12.35;;;8.70;99.90;;;;;;5053364;28;20114;-72
2022/05/02 06:38:01;;;;;;;23.73;11.57;;;8.80;99.90;;;;;;5053993;28;20120;-73
2022/05/02 06:40:55;;;;;;;25.20;11.75;;;8.90;99.90;;;;;;5052154;28;20424;-73
2022/05/02 06:43:39;;;;;;;22.35;11.35;;;9.00;99.90;;;;;;5053410;28;20053;-73
2022/05/02 06:46:19;;;;;;;24.55;11.43;;;9.10;99.90;;;;;;5052052;28;20045;-79
2022/05/02 06:49:08;;;;;;;22.08;11.52;;;9.20;99.90;;;;;;5052313;28;20393;-73
2022/05/02 06:51:39;;;;;;;23.70;11.68;;;9.30;99.90;;;;;;5036709;28;20064;-73
2022/05/02 06:54:36;;;;;;;23.00;11.52;;;9.40;99.90;;;;;;5051978;28;20053;-73
2022/05/02 06:57:14;;;;;;;27.95;12.02;;;9.50;99.90;;;;;;5053465;28;20385;-72
2022/05/02 06:59:45;;;;;;;22.70;11.77;;;9.60;99.90;;;;;;5052449;28;20053;-74
2022/05/02 07:02:42;;;;;;;22.30;11.43;;;9.70;99.90;;;;;;5053402;28;20049;-74
2022/05/02 07:05:33;;;;;;;23.83;11.40;;;9.90;99.90;;;;;;5051710;28;20045;-77
2022/05/02 07:08:04;;;;;;;21.75;11.25;;;10.00;99.90;;;;;;5051526;28;20048;-73
2022/05/02 07:10:38;;;;;;;22.83;11.15;;;10.10;99.90;;;;;;5051765;28;20048;-73
2022/05/02 07:13:35;;;;;;;23.42;11.25;;;10.20;99.90;;;;;;5051281;28;20053;-73
2022/05/02 07:16:22;;;;;;;22.70;10.90;;;10.30;99.90;;;;;;5035171;28;20106;-72
2022/05/02 07:19:25;;;;;;;24.15;10.80;;;10.50;99.90;;;;;;5035523;28;20052;-72
2022/05/02 07:22:01;;;;;;;25.08;11.90;;;10.60;99.90;;;;;;5051170;28;20401;-74
2022/05/02 07:24:46;;;;;;;21.55;11.02;;;10.70;99.90;;;;;;5034989;28;20095;-73
2022/05/02 07:27:39;;;;;;;20.23;11.32;;;10.80;99.90;;;;;;5051461;28;20133;-73
2022/05/02 07:30:06;;;;;;;21.85;11.15;;;11.00;99.90;;;;;;5052347;28;20369;-73
2022/05/02 07:32:33;;;;;;;20.17;10.43;;;11.00;99.90;;;;;;5051036;28;20159;-72
2022/05/02 07:35:00;;;;;;;18.58;9.98;;;11.30;99.90;;;;;;5050593;28;20044;-74
2022/05/02 07:37:25;;;;;;;21.70;10.77;;;11.30;99.90;;;;;;5067957;28;20083;-74
2022/05/02 07:39:52;;;;;;;21.05;10.20;;;11.30;99.90;;;;;;5052127;28;20080;-74
2022/05/02 07:42:19;;;;;;;17.88;10.05;;;11.40;99.90;;;;;;5051179;28;20461;-74
2022/05/02 07:44:51;;;;;;;18.20;9.50;;;11.60;99.90;;;;;;5052974;28;20048;-73
2022/05/02 07:47:18;;;;;;;18.15;10.40;;;11.60;99.90;;;;;;5053707;28;20423;-73
2022/05/02 07:49:51;;;;;;;21.42;10.98;;;11.70;99.90;;;;;;5051888;28;20040;-74
2022/05/02 07:52:24;;;;;;;19.48;10.27;;;11.80;99.90;;;;;;5052163;28;20148;-74
2022/05/02 07:54:52;;;;;;;16.80;9.05;;;12.00;99.90;;;;;;5050923;28;20075;-75
2022/05/02 07:57:20;;;;;;;17.17;8.93;;;12.10;99.90;;;;;;5052070;28;20056;-75
2022/05/02 07:59:49;;;;;;;17.98;10.05;;;;;;;;;;5054829;28;20044;-75
2022/05/02 08:02:16;;;;;;;18.23;8.85;;;12.80;99.90;;;;;;5055273;28;20067;-74
2022/05/02 08:04:44;;;;;;;18.98;7.95;;;12.40;99.90;;;;;;5056184;28;20128;-75
2022/05/02 08:07:15;;;;;;;22.42;9.63;;;12.60;99.90;;;;;;5056136;28;20603;-73
2022/05/02 08:10:00;;;;;;;16.17;8.48;;;12.60;99.90;;;;;;5055241;28;20044;-75
2022/05/02 08:12:30;;;;;;;16.10;7.82;;;;;;;;;;5055935;28;20060;-75
2022/05/02 08:15:28;;;;;;;17.63;8.48;;;12.00;99.90;;;;;;5038251;28;20057;-74
2022/05/02 08:18:24;;;;;;;18.05;8.73;;;12.90;99.90;;;;;;5055309;28;20056;-75
2022/05/02 08:21:04;;;;;;;17.50;8.40;;;12.70;99.90;;;;;;5057103;28;20107;-74
2022/05/02 08:27:15;;;;;;;22.83;8.43;;;12.90;99.90;;;;;;5055836;28;20053;-75
2022/05/02 08:30:10;;;;;;;19.52;8.07;;;13.00;99.90;;;;;;5054807;28;20048;-74
2022/05/02 08:32:56;;;;;;;16.15;8.13;;;12.90;99.90;;;;;;5053128;28;20064;-74
2022/05/02 08:36:10;;;;;;;16.67;7.15;;;13.00;99.40;;;;;;5054422;28;20455;-74
2022/05/02 08:38:41;;;;;;;16.13;7.15;;;13.00;99.90;;;;;;5024444;28;20057;-74
2022/05/02 08:41:25;;;;;;;14.38;7.25;;;13.20;99.90;;;;;;5054414;28;20048;-73
2022/05/02 08:44:06;;;;;;;13.98;7.18;;;13.30;99.90;;;;;;5056263;28;20041;-75
2022/05/02 08:46:41;;;;;;;14.25;6.07;;;13.40;99.90;;;;;;5055863;28;20048;-74
2022/05/02 08:49:36;;;;;;;14.73;5.78;;;13.50;99.90;;;;;;5054490;28;20041;-74
2022/05/02 08:52:14;;;;;;;13.38;6.40;;;13.60;97.40;;;;;;5037571;28;20041;-72
2022/05/02 08:54:42;;;;;;;14.80;8.30;;;13.60;98.60;;;;;;5054906;28;20101;-73
2022/05/02 08:57:36;;;;;;;18.60;7.32;;;13.60;95.80;;;;;;5055955;28;20187;-75
2022/05/02 09:00:09;;;;;;;15.70;7.50;;;13.70;96.80;;;;;;5056175;28;20063;-74
2022/05/02 09:03:12;;;;;;;18.58;6.15;;;13.80;97.70;;;;;;5055626;28;20048;-74
2022/05/02 09:06:18;;;;;;;18.95;6.88;;;14.00;98.00;;;;;;5037967;28;20470;-75
2022/05/02 09:09:18;;;;;;;13.00;6.82;;;14.20;97.00;;;;;;5055475;28;20052;-73
2022/05/02 09:12:27;;;;;;;13.02;5.80;;;14.20;94.40;;;;;;5054753;28;20045;-75
2022/05/02 09:15:11;;;;;;;13.55;5.25;;;14.30;96.40;;;;;;5053498;28;20385;-74
2022/05/02 09:17:49;;;;;;;12.27;6.32;;;14.40;93.40;;;;;;5053790;28;20101;-74
2022/05/02 09:20:21;;;;;;;15.88;6.07;;;14.60;95.20;;;;;;5040752;28;20132;-76
2022/05/02 09:22:46;;;;;;;14.63;6.38;;;14.80;94.30;;;;;;5053648;28;20052;-75
2022/05/02 09:25:24;;;;;;;13.02;6.57;;;14.60;92.30;;;;;;5054711;28;20106;-74
2022/05/02 09:27:55;;;;;;;11.90;5.97;;;14.80;93.50;;;;;;5054197;28;20045;-74
2022/05/02 09:30:42;;;;;;;13.00;6.68;;;15.00;93.40;;;;;;5055247;28;20116;-74
2022/05/02 09:33:38;;;;;;;13.95;6.00;;;15.00;90.80;;;;;;5055000;28;20048;-75
2022/05/02 09:36:10;;;;;;;12.20;6.00;;;15.10;91.00;;;;;;5055679;28;20049;-76
2022/05/02 09:38:51;;;;;;;9.23;4.97;;;15.30;91.70;;;;;;5037170;28;20057;-74
2022/05/02 09:41:46;;;;;;;9.35;5.07;;;15.30;91.20;;;;;;5053809;28;20343;-75
2022/05/02 09:51:15;;;;;;;13.82;6.28;;;15.30;85.30;;;;;;5015951;28;20064;-74
2022/05/02 09:54:06;;;;;;;14.55;6.60;;;15.00;87.00;;;;;;5051807;28;20510;-76
2022/05/02 09:56:54;;;;;;;15.43;6.75;;;15.10;88.80;;;;;;5053420;28;20067;-73
2022/05/02 09:59:24;;;;;;;13.48;6.57;;;14.90;86.20;;;;;;5054818;28;20202;-74
2022/05/02 10:02:15;;;;;;;15.77;7.90;;;14.80;85.70;;;;;;5053164;28;20041;-73
2022/05/02 10:05:07;;;;;;;12.82;6.20;;;14.70;85.20;;;;;;5054362;28;20049;-72
2022/05/02 10:08:09;;;;;;;13.23;7.30;;;14.90;84.90;;;;;;5053650;28;20496;-74
2022/05/02 10:10:42;;;;;;;14.80;6.55;;;14.80;85.00;;;;;;5015263;28;20064;-75
2022/05/02 10:13:40;;;;;;;16.60;7.13;;;14.90;83.60;;;;;;5054752;28;20051;-74
2022/05/02 10:16:31;;;;;;;14.57;7.03;;;14.70;81.90;;;;;;5054092;28;20053;-74
2022/05/02 10:19:18;;;;;;;13.85;6.95;;;14.70;80.20;;;;;;5053707;28;20053;-74
2022/05/02 10:22:09;;;;;;;13.52;6.20;;;14.60;81.00;;;;;;5053932;28;20045;-73
2022/05/02 10:24:37;;;;;;;15.82;6.95;;;14.60;79.70;;;;;;5054488;28;20074;-72
2022/05/02 10:27:35;;;;;;;15.85;6.10;;;14.50;79.20;;;;;;5053103;28;20064;-73
2022/05/02 10:30:08;;;;;;;12.70;6.07;;;14.50;81.70;;;;;;5040499;28;20065;-74
2022/05/02 10:32:50;;;;;;;12.70;6.07;;;14.50;80.40;;;;;;5052726;28;20059;-73
2022/05/02 10:35:18;;;;;;;12.35;6.03;;;14.80;81.20;;;;;;5052444;28;20041;-73
2022/05/02 10:38:12;;;;;;;12.70;5.70;;;14.90;78.60;;;;;;5053506;28;20049;-72
2022/05/02 10:40:40;;;;;;;12.75;5.97;;;15.00;76.10;;;;;;5050294;28;20068;-74
2022/05/02 10:43:08;;;;;;;12.40;6.25;;;15.00;78.70;;;;;;5035494;28;20053;-73
2022/05/02 10:45:36;;;;;;;13.82;7.10;;;15.20;79.60;;;;;;5054037;28;20059;-74
2022/05/02 10:48:30;;;;;;;10.90;6.22;;;15.10;77.20;;;;;;5052676;28;20143;-73
2022/05/02 10:51:35;;;;;;;17.27;7.75;;;15.20;78.60;;;;;;5026701;28;20126;-71
2022/05/02 10:54:09;;;;;;;14.43;7.00;;;15.00;77.50;;;;;;5027685;28;20056;-74
2022/05/02 10:56:40;;;;;;;14.35;6.47;;;15.00;78.00;;;;;;5053391;28;20215;-73
2022/05/02 10:59:09;;;;;;;16.73;7.13;;;14.90;76.50;;;;;;5053386;28;20222;-72
2022/05/02 11:01:50;;;;;;;15.90;7.00;;;14.70;76.50;;;;;;5035383;28;20127;-72
2022/05/02 11:04:48;;;;;;;12.98;7.15;;;14.80;79.20;;;;;;5052529;28;20052;-72
2022/05/02 11:07:59;;;;;;;13.55;6.85;;;14.70;77.20;;;;;;5043791;28;20049;-73
2022/05/02 11:10:30;;;;;;;14.30;7.20;;;14.90;79.10;;;;;;5037277;28;20382;-73
2022/05/02 11:13:11;;;;;;;15.52;7.80;;;15.10;77.60;;;;;;5053209;28;20037;-73
2022/05/02 11:15:37;;;;;;;14.77;7.22;;;14.90;77.00;;;;;;5036403;28;20117;-72
2022/05/02 11:21:40;;;;;;;16.08;6.80;;;15.20;76.30;;;;;;5053500;28;20068;-73
2022/05/02 11:24:17;;;;;;;15.35;7.32;;;15.30;76.30;;;;;;5052322;28;20453;-73
2022/05/02 11:26:58;;;;;;;14.10;6.65;;;15.50;74.90;;;;;;5051136;28;20122;-73
2022/05/02 11:29:33;;;;;;;14.48;6.65;;;15.70;75.60;;;;;;5053281;28;20048;-74
2022/05/02 11:32:10;;;;;;;12.25;6.78;;;15.80;76.20;;;;;;5053635;28;20087;-74
2022/05/02 11:34:59;;;;;;;14.35;7.50;;;15.80;76.60;;;;;;5051643;28;20040;-75
2022/05/02 11:37:32;;;;;;;14.60;6.28;;;15.80;71.30;;;;;;5053533;28;20053;-75
2022/05/02 11:40:05;;;;;;;13.43;6.60;;;15.60;72.10;;;;;;5052322;28;20382;-74
2022/05/02 11:42:33;;;;;;;15.02;5.68;;;15.50;68.70;;;;;;5053828;28;20045;-74
2022/05/02 11:45:12;;;;;;;12.15;6.53;;;15.60;71.50;;;;;;5053482;28;20044;-73
2022/05/02 11:48:06;;;;;;;16.67;6.13;;;15.70;71.90;;;;;;5052452;28;20124;-73
2022/05/02 11:50:44;;;;;;;13.40;6.25;;;;;;;;;;5053923;28;20074;-74
2022/05/02 11:53:13;;;;;;;12.52;6.22;;;16.10;70.10;;;;;;5056646;28;20049;-73
2022/05/02 11:55:40;;;;;;;13.02;6.25;;;16.20;71.60;;;;;;5058747;28;20503;-74
2022/05/02 11:58:24;;;;;;;11.57;5.97;;;16.30;72.50;;;;;;5059039;28;20338;-74
2022/05/02 12:01:01;;;;;;;12.50;6.38;;;16.40;72.50;;;;;;5036950;28;20053;-75
2022/05/02 12:03:33;;;;;;;10.90;5.85;;;16.30;71.70;;;;;;5052624;28;20045;-75
2022/05/02 12:06:04;;;;;;;10.52;5.75;;;16.30;69.40;;;;;;5053790;28;20048;-72
2022/05/02 12:08:45;;;;;;;11.55;5.88;;;16.30;68.10;;;;;;5051598;28;20128;-75
2022/05/02 12:11:15;;;;;;;11.57;6.38;;;16.30;68.20;;;;;;5052733;28;20055;-74
2022/05/02 12:13:47;;;;;;;14.02;5.70;;;16.20;68.90;;;;;;5051189;28;20047;-75
2022/05/02 12:16:18;;;;;;;11.10;4.85;;;16.40;70.20;;;;;;5067569;28;20088;-74
2022/05/02 12:18:45;;;;;;;11.00;5.93;;;16.50;70.90;;;;;;5053142;28;20366;-74
2022/05/02 12:21:14;;;;;;;11.82;5.97;;;16.60;68.90;;;;;;5052847;28;20361;-75
2022/05/02 12:23:41;;;;;;;11.73;5.70;;;16.60;69.60;;;;;;5051098;28;20099;-74
2022/05/02 12:26:19;;;;;;;12.00;5.80;;;16.70;70.20;;;;;;5018944;28;20056;-74
2022/05/02 12:28:51;;;;;;;12.75;5.95;;;16.70;69.20;;;;;;5052599;28;20053;-75
2022/05/02 12:31:22;;;;;;;12.18;5.85;;;16.80;68.80;;;;;;5051953;28;20043;-75
2022/05/02 12:34:02;;;;;;;9.57;4.70;;;16.80;68.90;;;;;;5052507;28;20068;-73
2022/05/02 12:36:47;;;;;;;10.77;5.82;;;16.90;68.60;;;;;;5051491;28;20496;-77
2022/05/02 12:39:35;;;;;;;12.30;5.05;;;16.50;62.70;;;;;;5051980;28;20057;-73
2022/05/02 12:42:18;;;;;;;8.15;4.53;;;16.50;64.30;;;;;;5053730;28;20037;-74
2022/05/02 12:44:57;;;;;;;12.07;5.47;;;16.20;59.90;;;;;;5038231;28;20459;-73
2022/05/02 12:47:25;;;;;;;11.45;5.40;;;16.50;63.30;;;;;;5058073;28;20052;-77
2022/05/02 12:50:07;;;;;;;13.35;5.78;;;16.60;64.60;;;;;;5044714;28;20053;-74
2022/05/02 12:52:35;;;;;;;11.05;5.10;;;16.70;65.60;;;;;;5050493;28;20122;-75
2022/05/02 12:55:01;;;;;;;8.10;4.13;;;16.70;63.50;;;;;;5071479;28;20037;-74
2022/05/02 13:00:31;;;;;;;12.75;5.00;;;16.80;60.40;;;;;;5076577;28;20036;-75
2022/05/02 13:03:05;;;;;;;9.70;4.47;;;16.80;59.50;;;;;;5077221;28;20077;-74
2022/05/02 13:05:32;;;;;;;10.80;4.38;;;16.80;60.90;;;;;;5076374;28;20045;-74
2022/05/02 13:08:11;;;;;;;9.73;5.20;;;16.90;59.50;;;;;;5075242;28;20099;-76
2022/05/02 13:10:39;;;;;;;11.88;3.90;;;16.80;58.00;;;;;;5076218;28;20071;-75
2022/05/02 13:13:09;;;;;;;11.27;4.60;;;16.90;59.90;;;;;;5068931;28;20045;-75
2022/05/02 13:15:45;;;;;;;10.57;4.55;;;17.10;60.60;;;;;;5057501;28;20056;-73
2022/05/02 13:18:14;;;;;;;8.35;4.20;;;17.10;58.60;;;;;;5057072;28;20053;-74
2022/05/02 13:20:44;;;;;;;10.10;4.10;;;16.80;58.10;;;;;;5059485;28;20045;-72
2022/05/02 13:23:15;;;;;;;9.55;4.78;;;16.70;57.50;;;;;;5055125;28;20136;-74
2022/05/02 13:25:59;;;;;;;7.60;4.03;;;16.80;57.60;;;;;;5056413;28;20052;-73
2022/05/02 13:28:55;;;;;;;6.85;3.70;;;16.60;56.60;;;;;;5043359;28;20045;-73
2022/05/02 13:32:02;;;;;;;7.45;3.38;;;16.80;55.90;;;;;;5057068;28;20049;-72
2022/05/02 13:34:31;;;;;;;11.13;5.07;;;16.90;59.50;;;;;;5055130;28;20041;-74
2022/05/02 13:37:33;;;;;;;10.60;5.30;;;16.80;59.40;;;;;;5055428;28;20057;-73
2022/05/02 13:40:02;;;;;;;12.93;4.75;;;16.70;59.80;;;;;;5055952;28;20103;-74
2022/05/02 13:42:39;;;;;;;12.05;6.55;;;16.80;61.80;;;;;;5054900;28;20060;-73
2022/05/02 13:45:16;;;;;;;12.45;5.68;;;16.80;61.80;;;;;;5055166;28;20124;-74
2022/05/02 13:47:49;;;;;;;12.23;4.88;;;16.60;62.40;;;;;;5038094;28;20136;-73